createdAt,value
2022-09-05T00:00:42.014Z,98.19
2022-09-05T00:01:42.010Z,98.19
2022-09-05T00:02:49.088Z,98.29
2022-09-05T00:03:43.115Z,98.50
2022-09-05T00:04:41.974Z,98.60
2022-09-05T00:05:52.678Z,98.39
2022-09-05T00:06:42.962Z,98.44
2022-09-05T00:07:59.252Z,98.29
2022-09-05T00:08:42.939Z,98.19
2022-09-05T00:09:41.940Z,98.34
2022-09-05T00:10:44.818Z,98.54
2022-09-05T00:11:44.152Z,97.99
2022-09-05T00:12:43.003Z,98.54
2022-09-05T00:13:41.910Z,98.44
2022-09-05T00:15:14.502Z,99.15
2022-09-05T00:15:42.935Z,98.95
2022-09-05T00:16:41.892Z,99.15
2022-09-05T00:18:04.924Z,99.05
2022-09-05T00:22:48.368Z,99.15
2022-09-05T00:24:17.194Z,99.05
2022-09-05T00:24:21.408Z,98.95
2022-09-05T00:24:28.080Z,98.24
2022-09-05T00:24:35.364Z,98.34
2022-09-05T00:24:35.421Z,98.95
2022-09-05T00:25:06.838Z,98.74
2022-09-05T00:25:43.805Z,98.85
2022-09-05T00:26:50.149Z,98.95
2022-09-05T00:27:42.806Z,99.15
2022-09-05T00:28:42.782Z,99.05
2022-09-05T00:30:34.997Z,99.15
2022-09-05T00:31:07.859Z,99.05
2022-09-05T00:31:56.632Z,98.95
2022-09-05T00:32:42.865Z,99.19
2022-09-05T00:33:41.750Z,99.19
2022-09-05T00:34:48.117Z,99.60
2022-09-05T00:35:42.717Z,99.70
2022-09-05T00:36:41.706Z,99.60
2022-09-05T00:37:41.731Z,99.91
2022-09-05T00:38:41.689Z,99.55
2022-09-05T00:39:41.723Z,99.65
2022-09-05T00:40:42.665Z,99.75
2022-09-05T00:41:41.667Z,99.85
2022-09-05T00:42:41.702Z,99.95
2022-09-05T00:43:41.649Z,99.65
2022-09-05T00:44:41.639Z,99.99
2022-09-05T00:45:41.756Z,99.99
2022-09-05T00:46:41.656Z,99.99
2022-09-05T00:47:41.617Z,99.99
2022-09-05T00:48:42.634Z,99.99
2022-09-05T00:49:41.594Z,99.91
2022-09-05T00:50:41.594Z,99.60
2022-09-05T00:51:41.581Z,99.70
2022-09-05T00:52:41.624Z,99.99
2022-09-05T00:53:41.567Z,99.99
2022-09-05T00:54:41.859Z,99.91
2022-09-05T00:55:42.604Z,99.99
2022-09-05T00:56:41.541Z,99.99
2022-09-05T00:57:41.530Z,99.99
2022-09-05T00:58:41.552Z,99.99
2022-09-05T00:59:41.511Z,99.99
2022-09-05T01:00:42.516Z,99.60
2022-09-05T01:01:41.609Z,99.80
2022-09-05T01:02:51.306Z,99.91
2022-09-05T01:03:42.511Z,99.75
2022-09-05T01:04:41.466Z,99.70
2022-09-05T01:05:41.458Z,99.80
2022-09-05T01:06:41.470Z,99.99
2022-09-05T01:07:44.183Z,99.99
2022-09-05T01:08:43.463Z,99.99
2022-09-05T01:09:41.440Z,99.99
2022-09-05T01:10:41.418Z,99.65
2022-09-05T01:11:41.405Z,99.75
2022-09-05T01:12:41.403Z,99.95
2022-09-05T01:13:42.427Z,99.24
2022-09-05T01:14:41.377Z,99.85
2022-09-05T01:15:41.413Z,99.99
2022-09-05T01:16:41.371Z,99.70
2022-09-05T01:17:41.365Z,99.75
2022-09-05T01:18:41.385Z,99.75
2022-09-05T01:19:41.356Z,99.95
2022-09-05T01:20:41.337Z,99.99
2022-09-05T01:21:41.327Z,99.99
2022-09-05T01:22:42.329Z,99.99
2022-09-05T01:23:41.328Z,99.99
2022-09-05T01:24:41.344Z,99.99
2022-09-05T01:25:41.284Z,99.99
2022-09-05T01:26:42.275Z,99.95
2022-09-05T01:28:32.952Z,99.65
2022-09-05T01:29:15.202Z,99.85
2022-09-05T01:29:42.256Z,99.55
2022-09-05T01:30:41.452Z,99.95
2022-09-05T01:31:41.224Z,99.75
2022-09-05T01:32:42.266Z,99.75
2022-09-05T01:33:41.260Z,99.99
2022-09-05T01:34:41.225Z,99.99
2022-09-05T01:35:41.208Z,99.99
2022-09-05T01:36:42.199Z,99.99
2022-09-05T01:37:41.202Z,99.99
2022-09-05T01:38:43.010Z,99.99
2022-09-05T01:40:14.455Z,99.99
2022-09-05T01:40:43.951Z,99.99
2022-09-05T01:41:42.157Z,99.99
2022-09-05T01:42:41.142Z,99.99
2022-09-05T01:43:41.167Z,99.99
2022-09-05T01:44:41.123Z,99.99
2022-09-05T01:45:41.129Z,99.99
2022-09-05T01:46:41.213Z,99.99
2022-09-05T01:47:41.115Z,99.99
2022-09-05T01:48:47.436Z,99.99
2022-09-05T01:49:42.104Z,99.99
2022-09-05T01:50:41.082Z,99.99
2022-09-05T01:51:41.070Z,99.99
2022-09-05T01:52:49.404Z,99.99
2022-09-05T01:53:42.153Z,99.99
2022-09-05T01:54:42.131Z,99.99
2022-09-05T01:56:05.619Z,99.99
2022-09-05T01:56:42.036Z,99.99
2022-09-05T01:57:41.024Z,99.99
2022-09-05T01:58:41.044Z,99.99
2022-09-05T01:59:41.040Z,99.99
2022-09-05T02:00:41.995Z,99.99
2022-09-05T02:01:41.066Z,99.99
2022-09-05T02:02:41.074Z,99.99
2022-09-05T02:03:42.001Z,99.99
2022-09-05T02:04:40.974Z,99.99
2022-09-05T02:05:48.249Z,99.99
2022-09-05T02:06:44.040Z,99.99
2022-09-05T02:07:40.957Z,99.99
2022-09-05T02:08:41.709Z,99.99
2022-09-05T02:09:40.911Z,99.99
2022-09-05T02:10:40.912Z,99.99
2022-09-05T02:11:40.897Z,99.99
2022-09-05T02:12:40.890Z,99.99
2022-09-05T02:13:40.929Z,99.99
2022-09-05T02:14:40.871Z,99.99
2022-09-05T02:15:40.911Z,99.99
2022-09-05T02:16:40.863Z,99.99
2022-09-05T02:17:49.944Z,99.99
2022-09-05T02:18:41.905Z,99.99
2022-09-05T02:19:40.845Z,99.99
2022-09-05T02:20:40.831Z,99.99
2022-09-05T02:21:57.269Z,99.99
2022-09-05T02:22:41.851Z,99.99
2022-09-05T02:23:42.478Z,99.99
2022-09-05T02:24:40.793Z,99.99
2022-09-05T02:26:02.400Z,99.99
2022-09-05T02:26:41.781Z,99.99
2022-09-05T02:28:04.470Z,99.99
2022-09-05T02:28:41.796Z,99.99
2022-09-05T02:29:40.779Z,99.99
2022-09-05T02:30:48.456Z,99.99
2022-09-05T02:31:41.764Z,99.99
2022-09-05T02:32:43.245Z,99.99
2022-09-05T02:33:40.739Z,99.99
2022-09-05T02:34:40.851Z,99.99
2022-09-05T02:35:40.712Z,99.99
2022-09-05T02:36:40.694Z,99.99
2022-09-05T02:38:51.107Z,99.99
2022-09-05T02:42:23.956Z,99.99
2022-09-05T02:45:09.419Z,99.99
2022-09-05T02:45:12.930Z,99.99
2022-09-05T02:45:13.853Z,99.99
2022-09-05T02:45:14.353Z,99.99
2022-09-05T02:45:14.649Z,99.99
2022-09-05T02:45:16.670Z,99.99
2022-09-05T02:45:41.661Z,99.99
2022-09-05T02:46:40.780Z,99.99
2022-09-05T02:47:40.610Z,99.99
2022-09-05T02:48:40.597Z,99.99
2022-09-05T02:51:45.052Z,99.99
2022-09-05T02:55:41.559Z,99.99
2022-09-05T02:57:24.058Z,99.99
2022-09-05T02:57:28.116Z,99.99
2022-09-05T02:57:29.837Z,99.99
2022-09-05T02:57:33.719Z,99.99
2022-09-05T02:57:35.414Z,99.99
2022-09-05T02:57:41.357Z,99.99
2022-09-05T02:58:06.431Z,99.99
2022-09-05T02:59:06.042Z,99.99
2022-09-05T02:59:42.525Z,99.99
2022-09-05T03:00:40.492Z,99.99
2022-09-05T03:01:40.542Z,99.99
2022-09-05T03:02:40.505Z,99.99
2022-09-05T03:03:40.473Z,99.99
2022-09-05T03:04:40.485Z,99.99
2022-09-05T03:05:40.444Z,99.99
2022-09-05T03:06:40.438Z,99.99
2022-09-05T03:07:40.427Z,99.99
2022-09-05T03:08:40.451Z,99.99
2022-09-05T03:09:40.414Z,99.99
2022-09-05T03:10:53.797Z,99.99
2022-09-05T03:11:41.396Z,99.99
2022-09-05T03:12:40.378Z,99.99
2022-09-05T03:13:48.860Z,99.99
2022-09-05T03:14:41.368Z,99.99
2022-09-05T03:15:40.382Z,99.99
2022-09-05T03:16:47.030Z,99.99
2022-09-05T03:17:41.343Z,99.99
2022-09-05T03:18:40.358Z,99.99
2022-09-05T03:19:46.176Z,99.99
2022-09-05T03:20:41.322Z,99.99
2022-09-05T03:21:40.314Z,99.99
2022-09-05T03:22:40.304Z,99.99
2022-09-05T03:23:40.325Z,99.99
2022-09-05T03:24:40.536Z,99.99
2022-09-05T03:25:40.274Z,99.99
2022-09-05T03:26:40.269Z,99.99
2022-09-05T03:27:40.257Z,99.99
2022-09-05T03:28:40.282Z,99.99
2022-09-05T03:29:40.246Z,99.99
2022-09-05T03:30:40.323Z,99.99
2022-09-05T03:31:40.229Z,99.99
2022-09-05T03:32:42.125Z,99.99
2022-09-05T03:33:40.238Z,99.99
2022-09-05T03:34:40.195Z,99.99
2022-09-05T03:35:40.191Z,99.99
2022-09-05T03:36:40.177Z,99.99
2022-09-05T03:37:40.168Z,99.99
2022-09-05T03:38:40.293Z,99.99
2022-09-05T03:39:40.230Z,99.99
2022-09-05T03:40:40.150Z,99.99
2022-09-05T03:41:40.904Z,99.99
2022-09-05T03:42:40.126Z,99.99
2022-09-05T03:43:40.194Z,99.99
2022-09-05T03:44:40.113Z,99.99
2022-09-05T03:45:40.104Z,99.99
2022-09-05T03:46:40.096Z,99.99
2022-09-05T03:47:40.085Z,99.99
2022-09-05T03:48:40.133Z,99.99
2022-09-05T03:51:18.420Z,99.99
2022-09-05T03:57:06.641Z,99.99
2022-09-05T03:57:10.321Z,99.99
2022-09-05T03:57:15.964Z,99.99
2022-09-05T03:57:17.818Z,99.99
2022-09-05T03:57:18.178Z,99.99
2022-09-05T03:57:19.945Z,99.99
2022-09-05T03:57:24.262Z,99.99
2022-09-05T03:57:42.714Z,99.99
2022-09-05T03:58:57.430Z,99.99
2022-09-05T03:59:42.024Z,99.99
2022-09-05T04:00:39.982Z,99.99
2022-09-05T04:02:47.832Z,99.99
2022-09-05T04:06:32.987Z,99.99
2022-09-05T04:08:10.750Z,99.99
2022-09-05T04:08:15.214Z,99.99
2022-09-05T04:08:16.943Z,99.99
2022-09-05T04:08:18.933Z,99.99
2022-09-05T04:08:20.923Z,99.99
2022-09-05T04:08:43.076Z,99.99
2022-09-05T04:09:51.033Z,99.99
2022-09-05T04:10:41.936Z,99.99
2022-09-05T04:11:39.882Z,99.99
2022-09-05T04:12:39.882Z,99.99
2022-09-05T04:13:39.904Z,99.99
2022-09-05T04:14:39.854Z,99.99
2022-09-05T04:15:39.849Z,99.99
2022-09-05T04:16:39.903Z,99.99
2022-09-05T04:17:39.832Z,99.99
2022-09-05T04:18:39.853Z,99.99
2022-09-05T04:19:39.816Z,99.99
2022-09-05T04:20:40.650Z,99.99
2022-09-05T04:21:40.797Z,99.99
2022-09-05T04:22:39.788Z,99.99
2022-09-05T04:23:39.810Z,99.99
2022-09-05T04:24:39.769Z,99.99
2022-09-05T04:25:39.764Z,99.99
2022-09-05T04:26:39.760Z,99.99
2022-09-05T04:27:39.744Z,99.99
2022-09-05T04:28:39.958Z,99.99
2022-09-05T04:29:39.735Z,99.99
2022-09-05T04:30:40.599Z,99.99
2022-09-05T04:31:40.739Z,99.99
2022-09-05T04:32:39.706Z,99.99
2022-09-05T04:33:39.725Z,99.99
2022-09-05T04:34:39.684Z,99.99
2022-09-05T04:35:39.670Z,99.99
2022-09-05T04:36:39.684Z,99.99
2022-09-05T04:37:48.546Z,99.99
2022-09-05T04:38:40.683Z,99.99
2022-09-05T04:39:39.677Z,99.99
2022-09-05T04:40:39.635Z,99.99
2022-09-05T04:41:40.170Z,99.99
2022-09-05T04:42:39.614Z,99.99
2022-09-05T04:43:39.603Z,99.99
2022-09-05T04:44:39.624Z,99.99
2022-09-05T04:45:39.626Z,99.99
2022-09-05T04:46:48.544Z,99.99
2022-09-05T04:47:40.565Z,99.99
2022-09-05T04:48:39.558Z,99.99
2022-09-05T04:49:39.581Z,99.99
2022-09-05T04:50:39.544Z,99.99
2022-09-05T04:51:39.534Z,99.99
2022-09-05T04:52:39.530Z,99.99
2022-09-05T04:53:39.531Z,99.99
2022-09-05T04:54:39.540Z,99.99
2022-09-05T04:55:39.505Z,99.99
2022-09-05T04:56:39.493Z,99.99
2022-09-05T04:57:39.490Z,99.99
2022-09-05T04:59:09.019Z,99.99
2022-09-05T05:05:22.308Z,99.99
2022-09-05T05:06:05.975Z,99.99
2022-09-05T05:06:12.052Z,99.99
2022-09-05T05:06:13.108Z,99.99
2022-09-05T05:06:16.121Z,99.99
2022-09-05T05:06:16.896Z,99.99
2022-09-05T05:06:18.134Z,99.99
2022-09-05T05:06:46.069Z,99.99
2022-09-05T05:07:41.527Z,99.99
2022-09-05T05:08:39.749Z,99.99
2022-09-05T05:09:40.388Z,99.99
2022-09-05T05:15:13.905Z,99.99
2022-09-05T05:17:57.451Z,99.75
2022-09-05T05:17:59.641Z,99.95
2022-09-05T05:18:00.832Z,99.99
2022-09-05T05:18:02.848Z,99.99
2022-09-05T05:18:06.548Z,98.88
2022-09-05T05:18:11.158Z,98.84
2022-09-05T05:18:13.561Z,98.38
2022-09-05T05:18:56.079Z,98.88
2022-09-05T05:19:41.359Z,98.52
2022-09-05T05:20:43.466Z,98.38
2022-09-05T05:21:39.277Z,98.73
2022-09-05T05:22:39.285Z,98.63
2022-09-05T05:23:39.297Z,99.24
2022-09-05T05:24:39.246Z,99.28
2022-09-05T05:25:40.283Z,98.83
2022-09-05T05:26:39.235Z,99.33
2022-09-05T05:27:39.232Z,99.49
2022-09-05T05:28:39.253Z,98.54
2022-09-05T05:29:39.213Z,97.43
2022-09-05T05:30:39.203Z,95.76
2022-09-05T05:31:39.250Z,94.85
2022-09-05T05:32:45.804Z,94.75
2022-09-05T05:33:40.210Z,93.79
2022-09-05T05:34:39.165Z,93.95
2022-09-05T05:35:47.979Z,92.94
2022-09-05T05:36:40.149Z,92.60
2022-09-05T05:37:39.140Z,92.69
2022-09-05T05:38:39.167Z,91.74
2022-09-05T05:39:39.193Z,91.30
2022-09-05T05:40:43.634Z,90.49
2022-09-05T05:41:40.103Z,90.55
2022-09-05T05:42:39.098Z,90.00
2022-09-05T05:43:42.839Z,88.10
2022-09-05T05:44:40.083Z,87.09
2022-09-05T05:45:39.124Z,86.35
2022-09-05T05:46:39.062Z,86.24
2022-09-05T05:47:39.063Z,86.04
2022-09-05T05:48:39.089Z,85.90
2022-09-05T05:49:39.043Z,84.75
2022-09-05T05:50:39.029Z,84.81
2022-09-05T05:52:01.008Z,84.01
2022-09-05T05:52:40.017Z,83.31
2022-09-05T05:53:43.926Z,83.76
2022-09-05T05:54:40.990Z,82.86
2022-09-05T05:55:51.996Z,82.82
2022-09-05T05:56:39.992Z,82.58
2022-09-05T05:57:38.994Z,81.34
2022-09-05T05:58:38.979Z,81.21
2022-09-05T05:59:38.991Z,82.32
2022-09-05T06:00:38.958Z,81.34
2022-09-05T06:01:39.026Z,81.00
2022-09-05T06:02:39.045Z,80.50
2022-09-05T06:03:39.056Z,80.04
2022-09-05T06:04:45.382Z,80.54
2022-09-05T06:05:39.911Z,79.99
2022-09-05T06:06:38.899Z,80.19
2022-09-05T06:07:45.058Z,79.75
2022-09-05T06:14:49.205Z,79.32
2022-09-05T06:14:49.678Z,78.66
2022-09-05T06:14:55.327Z,77.87
2022-09-05T06:14:55.518Z,78.38
2022-09-05T06:14:55.983Z,78.52
2022-09-05T06:14:57.018Z,78.28
2022-09-05T06:15:04.345Z,78.24
2022-09-05T06:15:39.815Z,78.14
2022-09-05T06:16:38.853Z,77.70
2022-09-05T06:17:38.801Z,77.43
2022-09-05T06:18:42.535Z,75.79
2022-09-05T06:20:20.893Z,75.59
2022-09-05T06:22:04.794Z,74.16
2022-09-05T06:22:10.456Z,74.22
2022-09-05T06:22:39.761Z,73.82
2022-09-05T06:23:40.103Z,72.16
2022-09-05T06:24:38.776Z,70.29
2022-09-05T06:25:38.758Z,69.53
2022-09-05T06:26:38.734Z,68.53
2022-09-05T06:28:17.322Z,69.06
2022-09-05T06:28:39.710Z,71.06
2022-09-05T06:29:38.802Z,70.49
2022-09-05T06:30:38.690Z,69.86
2022-09-05T06:31:38.758Z,68.86
2022-09-05T06:32:38.685Z,70.56
2022-09-05T06:33:38.663Z,69.32
2022-09-05T06:34:38.693Z,69.36
2022-09-05T06:35:38.649Z,70.53
2022-09-05T06:36:38.647Z,70.19
2022-09-05T06:37:38.637Z,69.99
2022-09-05T06:38:38.627Z,70.29
2022-09-05T06:39:38.735Z,70.76
2022-09-05T06:40:39.613Z,70.92
2022-09-05T06:41:38.607Z,70.49
2022-09-05T06:42:43.590Z,69.69
2022-09-05T06:43:39.592Z,68.86
2022-09-05T06:44:38.581Z,67.57
2022-09-05T06:45:38.602Z,68.70
2022-09-05T06:46:55.262Z,68.00
2022-09-05T06:47:39.583Z,68.79
2022-09-05T06:48:45.815Z,69.82
2022-09-05T06:49:42.841Z,69.29
2022-09-05T06:51:07.285Z,69.82
2022-09-05T06:51:44.953Z,69.73
2022-09-05T06:52:39.518Z,70.36
2022-09-05T06:53:38.511Z,70.06
2022-09-05T06:54:38.497Z,69.20
2022-09-05T06:55:39.513Z,68.53
2022-09-05T06:56:38.483Z,66.71
2022-09-05T06:57:40.032Z,65.45
2022-09-05T06:58:39.485Z,65.55
2022-09-05T06:59:38.459Z,66.71
2022-09-05T07:00:38.500Z,67.14
2022-09-05T07:01:59.497Z,67.47
2022-09-05T07:02:59.297Z,68.50
2022-09-05T07:03:39.421Z,68.27
2022-09-05T07:05:37.820Z,67.74
2022-09-05T07:05:45.320Z,67.83
2022-09-05T07:07:01.173Z,67.24
2022-09-05T07:07:43.730Z,66.84
2022-09-05T07:08:39.383Z,66.81
2022-09-05T07:09:38.373Z,65.19
2022-09-05T07:10:39.379Z,66.41
2022-09-05T07:11:39.363Z,68.07
2022-09-05T07:12:38.355Z,68.66
2022-09-05T07:13:44.754Z,69.39
2022-09-05T07:14:40.324Z,69.86
2022-09-05T07:15:38.353Z,70.16
2022-09-05T07:16:39.039Z,70.39
2022-09-05T07:18:06.175Z,71.12
2022-09-05T07:18:40.296Z,71.09
2022-09-05T07:19:38.296Z,70.82
2022-09-05T07:21:15.767Z,68.73
2022-09-05T07:21:39.285Z,67.07
2022-09-05T07:22:47.778Z,65.82
2022-09-05T07:23:56.510Z,64.56
2022-09-05T07:24:54.783Z,64.03
2022-09-05T07:25:39.281Z,65.02
2022-09-05T07:26:51.654Z,65.49
2022-09-05T07:27:48.408Z,64.53
2022-09-05T07:28:39.219Z,64.20
2022-09-05T07:29:38.214Z,64.63
2022-09-05T07:30:38.266Z,64.67
2022-09-05T07:31:38.432Z,64.56
2022-09-05T07:32:38.204Z,64.83
2022-09-05T07:33:38.190Z,65.49
2022-09-05T07:34:38.176Z,65.29
2022-09-05T07:35:41.494Z,65.32
2022-09-05T07:36:38.153Z,65.49
2022-09-05T07:37:38.158Z,65.95
2022-09-05T07:38:52.414Z,66.78
2022-09-05T07:39:39.165Z,65.06
2022-09-05T07:40:38.197Z,63.91
2022-09-05T07:41:38.124Z,62.85
2022-09-05T07:42:38.115Z,61.64
2022-09-05T07:43:38.108Z,61.18
2022-09-05T07:44:38.105Z,60.33
2022-09-05T07:45:38.171Z,58.63
2022-09-05T07:46:38.086Z,57.88
2022-09-05T07:47:38.079Z,56.99
2022-09-05T07:48:38.068Z,57.26
2022-09-05T07:49:39.919Z,56.48
2022-09-05T07:55:56.179Z,57.45
2022-09-05T07:56:47.607Z,59.18
2022-09-05T07:56:50.339Z,60.19
2022-09-05T07:56:55.882Z,57.64
2022-09-05T07:57:01.602Z,62.32
2022-09-05T07:57:03.849Z,61.37
2022-09-05T07:57:12.639Z,62.15
2022-09-05T07:57:52.176Z,61.41
2022-09-05T07:58:38.990Z,60.19
2022-09-05T07:59:37.978Z,59.67
2022-09-05T08:00:38.034Z,58.19
2022-09-05T08:01:39.726Z,59.83
2022-09-05T08:02:37.961Z,60.42
2022-09-05T08:03:37.959Z,59.91
2022-09-05T08:04:37.984Z,57.22
2022-09-05T08:05:38.030Z,57.29
2022-09-05T08:07:45.839Z,57.19
2022-09-05T08:07:47.346Z,57.09
2022-09-05T08:08:38.919Z,55.81
2022-09-05T08:10:06.350Z,56.96
2022-09-05T08:11:24.231Z,56.42
2022-09-05T08:11:38.895Z,55.56
2022-09-05T08:13:22.578Z,55.76
2022-09-05T08:13:39.297Z,56.52
2022-09-05T08:14:43.335Z,55.83
2022-09-05T08:16:00.613Z,55.21
2022-09-05T08:16:38.910Z,55.87
2022-09-05T08:17:37.846Z,53.75
2022-09-05T08:18:37.836Z,53.31
2022-09-05T08:19:37.833Z,52.25
2022-09-05T08:20:37.825Z,53.70
2022-09-05T08:21:40.017Z,54.52
2022-09-05T08:22:38.818Z,53.91
2022-09-05T08:23:37.794Z,53.98
2022-09-05T08:24:37.794Z,53.88
2022-09-05T08:25:57.200Z,53.98
2022-09-05T08:26:38.786Z,53.63
2022-09-05T08:27:37.793Z,53.46
2022-09-05T08:28:39.608Z,53.73
2022-09-05T08:29:37.773Z,53.46
2022-09-05T08:30:37.779Z,54.61
2022-09-05T08:31:41.947Z,52.72
2022-09-05T08:32:37.727Z,52.23
2022-09-05T08:33:38.733Z,52.65
2022-09-05T08:34:44.750Z,53.78
2022-09-05T08:35:38.743Z,55.51
2022-09-05T08:36:37.720Z,53.73
2022-09-05T08:37:37.705Z,53.78
2022-09-05T08:38:40.928Z,55.87
2022-09-05T08:39:37.708Z,53.75
2022-09-05T08:40:37.715Z,55.06
2022-09-05T08:41:51.108Z,53.50
2022-09-05T08:42:38.664Z,52.15
2022-09-05T08:46:37.182Z,51.25
2022-09-05T08:46:43.898Z,50.93
2022-09-05T08:46:47.489Z,52.11
2022-09-05T08:46:49.158Z,52.28
2022-09-05T08:47:45.000Z,52.25
2022-09-05T08:48:38.625Z,51.51
2022-09-05T08:49:40.333Z,51.32
2022-09-05T08:50:37.639Z,50.42
2022-09-05T08:51:41.226Z,51.39
2022-09-05T08:52:38.593Z,50.56
2022-09-05T08:53:46.739Z,51.56
2022-09-05T08:54:38.598Z,52.03
2022-09-05T08:55:37.617Z,50.32
2022-09-05T08:56:37.568Z,51.25
2022-09-05T08:57:39.434Z,50.66
2022-09-05T08:58:37.553Z,52.15
2022-09-05T08:59:37.557Z,51.34
2022-09-05T09:00:38.638Z,51.20
2022-09-05T09:01:39.547Z,49.43
2022-09-05T09:02:47.789Z,49.14
2022-09-05T09:03:38.608Z,51.25
2022-09-05T09:05:00.850Z,51.44
2022-09-05T09:05:49.882Z,50.22
2022-09-05T09:06:38.515Z,49.99
2022-09-05T09:07:51.499Z,49.11
2022-09-05T09:08:38.512Z,49.92
2022-09-05T09:09:37.481Z,51.59
2022-09-05T09:10:37.511Z,49.53
2022-09-05T09:11:37.471Z,48.97
2022-09-05T09:12:37.470Z,49.46
2022-09-05T09:13:37.458Z,47.95
2022-09-05T09:14:37.461Z,48.24
2022-09-05T09:15:37.480Z,49.92
2022-09-05T09:16:37.442Z,49.65
2022-09-05T09:17:37.438Z,48.26
2022-09-05T09:18:37.434Z,48.75
2022-09-05T09:19:37.427Z,47.90
2022-09-05T09:20:37.448Z,45.88
2022-09-05T09:21:38.408Z,45.68
2022-09-05T09:22:37.409Z,47.58
2022-09-05T09:23:37.408Z,48.26
2022-09-05T09:24:37.388Z,47.12
2022-09-05T09:25:37.419Z,46.49
2022-09-05T09:26:37.388Z,46.00
2022-09-05T09:28:46.565Z,47.78
2022-09-05T09:28:50.214Z,46.59
2022-09-05T09:29:38.359Z,45.57
2022-09-05T09:30:37.378Z,45.42
2022-09-05T09:31:37.444Z,46.86
2022-09-05T09:32:37.352Z,45.68
2022-09-05T09:33:37.333Z,44.86
2022-09-05T09:34:39.568Z,44.62
2022-09-05T09:35:37.348Z,43.24
2022-09-05T09:36:37.318Z,45.59
2022-09-05T09:37:51.956Z,45.39
2022-09-05T09:38:38.303Z,46.26
2022-09-05T09:39:39.775Z,47.56
2022-09-05T09:40:37.315Z,47.77
2022-09-05T09:41:37.292Z,47.46
2022-09-05T09:42:37.287Z,47.58
2022-09-05T09:43:37.269Z,48.09
2022-09-05T09:44:37.269Z,48.90
2022-09-05T09:45:37.278Z,47.60
2022-09-05T09:46:39.383Z,47.95
2022-09-05T09:47:37.246Z,46.49
2022-09-05T09:48:37.244Z,45.76
2022-09-05T09:49:37.238Z,45.64
2022-09-05T09:50:37.263Z,47.24
2022-09-05T09:51:38.218Z,47.66
2022-09-05T09:52:37.211Z,45.64
2022-09-05T09:53:37.442Z,46.56
2022-09-05T09:54:37.198Z,45.06
2022-09-05T09:55:37.222Z,44.57
2022-09-05T09:56:37.198Z,45.12
2022-09-05T09:57:37.172Z,45.39
2022-09-05T09:58:37.173Z,45.25
2022-09-05T09:59:45.327Z,44.51
2022-09-05T10:00:38.196Z,43.73
2022-09-05T10:01:37.487Z,43.92
2022-09-05T10:07:25.301Z,43.75
2022-09-05T10:09:32.735Z,43.71
2022-09-05T10:10:38.879Z,41.84
2022-09-05T10:10:39.362Z,43.58
2022-09-05T10:10:45.321Z,43.05
2022-09-05T10:10:45.887Z,47.21
2022-09-05T10:10:46.527Z,43.99
2022-09-05T10:10:59.081Z,45.42
2022-09-05T10:11:07.811Z,46.89
2022-09-05T10:11:55.536Z,47.21
2022-09-05T10:12:39.090Z,47.63
2022-09-05T10:13:37.082Z,45.56
2022-09-05T10:14:49.330Z,45.32
2022-09-05T10:15:38.235Z,44.06
2022-09-05T10:16:37.059Z,42.56
2022-09-05T10:17:37.062Z,42.68
2022-09-05T10:18:37.057Z,42.39
2022-09-05T10:20:39.070Z,46.92
2022-09-05T10:21:37.041Z,46.80
2022-09-05T10:22:37.744Z,48.14
2022-09-05T10:23:38.017Z,46.92
2022-09-05T10:24:38.011Z,48.87
2022-09-05T10:25:36.997Z,49.68
2022-09-05T10:26:37.027Z,50.49
2022-09-05T10:27:36.988Z,50.85
2022-09-05T10:28:36.986Z,51.07
2022-09-05T10:29:38.700Z,50.02
2022-09-05T10:32:23.207Z,49.14
2022-09-05T10:33:22.668Z,47.33
2022-09-05T10:35:04.928Z,45.62
2022-09-05T10:35:10.839Z,48.21
2022-09-05T10:35:17.245Z,45.76
2022-09-05T10:35:38.021Z,48.55
2022-09-05T10:36:37.008Z,49.19
2022-09-05T10:37:36.919Z,50.49
2022-09-05T10:38:36.927Z,50.90
2022-09-05T10:39:36.938Z,49.85
2022-09-05T10:40:51.439Z,48.45
2022-09-05T10:41:37.925Z,48.45
2022-09-05T10:42:37.150Z,47.15
2022-09-05T10:43:37.884Z,45.95
2022-09-05T10:44:36.874Z,46.17
2022-09-05T10:45:38.477Z,45.85
2022-09-05T10:46:52.330Z,45.85
2022-09-05T10:47:38.858Z,46.31
2022-09-05T10:48:36.851Z,45.34
2022-09-05T10:49:36.836Z,44.71
2022-09-05T10:50:36.833Z,42.29
2022-09-05T10:51:37.752Z,44.27
2022-09-05T10:52:36.818Z,43.68
2022-09-05T10:53:39.429Z,43.44
2022-09-05T10:54:36.817Z,43.07
2022-09-05T10:55:36.795Z,42.76
2022-09-05T10:56:36.815Z,42.70
2022-09-05T10:57:36.851Z,43.41
2022-09-05T10:59:33.116Z,42.70
2022-09-05T11:02:20.635Z,41.89
2022-09-05T11:02:24.439Z,42.95
2022-09-05T11:02:29.803Z,42.64
2022-09-05T11:02:41.200Z,42.58
2022-09-05T11:03:38.759Z,42.59
2022-09-05T11:04:46.399Z,41.27
2022-09-05T11:05:37.768Z,42.64
2022-09-05T11:06:36.747Z,43.88
2022-09-05T11:07:36.709Z,43.82
2022-09-05T11:08:36.696Z,44.13
2022-09-05T11:09:36.703Z,43.09
2022-09-05T11:10:36.694Z,43.38
2022-09-05T11:11:36.713Z,43.80
2022-09-05T11:12:36.683Z,43.66
2022-09-05T11:13:36.670Z,41.50
2022-09-05T11:14:36.655Z,44.23
2022-09-05T11:15:36.705Z,44.58
2022-09-05T11:16:36.719Z,42.88
2022-09-05T11:17:36.642Z,42.41
2022-09-05T11:18:55.675Z,43.23
2022-09-05T11:19:37.625Z,41.97
2022-09-05T11:20:36.686Z,40.25
2022-09-05T11:21:36.639Z,40.58
2022-09-05T11:22:36.610Z,39.94
2022-09-05T11:23:36.610Z,39.41
2022-09-05T11:24:36.592Z,38.46
2022-09-05T11:25:40.470Z,37.92
2022-09-05T11:26:36.612Z,36.87
2022-09-05T11:27:36.570Z,38.19
2022-09-05T11:28:36.901Z,38.32
2022-09-05T11:29:36.557Z,37.99
2022-09-05T11:30:38.692Z,38.50
2022-09-05T11:31:45.740Z,39.12
2022-09-05T11:37:35.867Z,37.47
2022-09-05T11:39:45.663Z,38.31
2022-09-05T11:39:50.250Z,37.47
2022-09-05T11:39:55.957Z,37.59
2022-09-05T11:39:56.731Z,37.29
2022-09-05T11:39:59.643Z,37.49
2022-09-05T11:40:04.230Z,39.26
2022-09-05T11:40:07.146Z,36.40
2022-09-05T11:40:53.543Z,38.44
2022-09-05T11:41:38.563Z,39.00
2022-09-05T11:42:36.489Z,39.24
2022-09-05T11:43:36.473Z,38.19
2022-09-05T11:44:36.481Z,36.29
2022-09-05T11:45:36.823Z,37.47
2022-09-05T11:46:36.526Z,37.26
2022-09-05T11:47:43.508Z,37.16
2022-09-05T11:48:38.525Z,35.77
2022-09-05T11:49:37.427Z,35.86
2022-09-05T11:50:37.429Z,36.56
2022-09-05T11:51:36.433Z,36.16
2022-09-05T11:52:36.451Z,34.96
2022-09-05T11:53:36.422Z,34.73
2022-09-05T11:54:36.403Z,35.00
2022-09-05T11:55:36.403Z,34.68
2022-09-05T11:56:42.693Z,32.99
2022-09-05T11:57:37.411Z,32.15
2022-09-05T11:58:44.981Z,34.57
2022-09-05T11:59:37.376Z,33.97
2022-09-05T12:00:36.368Z,34.45
2022-09-05T12:01:42.900Z,33.95
2022-09-05T12:02:37.763Z,34.19
2022-09-05T12:03:59.281Z,36.21
2022-09-05T12:04:37.339Z,36.27
2022-09-05T12:05:49.385Z,34.59
2022-09-05T12:06:37.357Z,33.80
2022-09-05T12:07:37.362Z,34.23
2022-09-05T12:08:36.318Z,35.68
2022-09-05T12:09:36.316Z,35.47
2022-09-05T12:10:43.653Z,35.78
2022-09-05T12:11:37.294Z,35.55
2022-09-05T12:12:41.341Z,34.97
2022-09-05T12:13:37.286Z,34.97
2022-09-05T12:14:36.278Z,35.69
2022-09-05T12:15:36.295Z,32.82
2022-09-05T12:16:36.340Z,33.28
2022-09-05T12:17:36.289Z,32.78
2022-09-05T12:18:36.290Z,32.47
2022-09-05T12:19:36.252Z,32.75
2022-09-05T12:20:43.182Z,34.01
2022-09-05T12:21:38.919Z,33.34
2022-09-05T12:22:36.256Z,35.88
2022-09-05T12:24:07.951Z,36.28
2022-09-05T12:25:26.174Z,37.18
2022-09-05T12:27:36.043Z,36.47
2022-09-05T12:27:38.833Z,36.61
2022-09-05T12:29:33.431Z,34.67
2022-09-05T12:29:43.695Z,34.61
2022-09-05T12:31:07.141Z,34.61
2022-09-05T12:33:43.793Z,34.22
2022-09-05T12:34:05.212Z,34.83
2022-09-05T12:36:04.060Z,34.09
2022-09-05T12:36:04.776Z,35.13
2022-09-05T12:36:10.278Z,34.80
2022-09-05T12:40:44.605Z,34.43
2022-09-05T12:40:55.706Z,34.49
2022-09-05T12:41:32.839Z,34.80
2022-09-05T12:41:38.190Z,34.22
2022-09-05T12:41:41.716Z,36.18
2022-09-05T12:41:42.339Z,34.61
2022-09-05T12:42:10.358Z,33.70
2022-09-05T12:42:56.277Z,34.74
2022-09-05T12:44:36.610Z,34.93
2022-09-05T12:44:44.540Z,34.93
2022-09-05T12:45:38.002Z,35.92
2022-09-05T12:46:36.070Z,34.12
2022-09-05T12:47:36.098Z,34.14
2022-09-05T12:48:39.331Z,34.61
2022-09-05T12:49:36.475Z,35.05
2022-09-05T12:50:36.052Z,35.33
2022-09-05T12:51:45.722Z,36.92
2022-09-05T12:52:37.060Z,36.80
2022-09-05T12:53:36.246Z,37.06